sensor_id;sensor_type;location;lat;lon;timestamp;P1;durP1;ratioP1;P2;durP2;ratioP2
8803;SDS011;4438;50.890;4.726;2022-07-30T00:00:27;5.07;;;4.37;;
8803;SDS011;4438;50.890;4.726;2022-07-30T00:02:53;4.23;;;3.90;;
8803;SDS011;4438;50.890;4.726;2022-07-30T00:05:19;4.57;;;4.10;;
8803;SDS011;4438;50.890;4.726;2022-07-30T00:07:45;4.63;;;4.23;;
8803;SDS011;4438;50.890;4.726;2022-07-30T00:10:11;6.10;;;4.63;;
8803;SDS011;4438;50.890;4.726;2022-07-30T00:12:37;7.30;;;4.63;;
8803;SDS011;4438;50.890;4.726;2022-07-30T00:15:04;4.73;;;4.23;;
8803;SDS011;4438;50.890;4.726;2022-07-30T00:17:30;6.83;;;5.30;;
8803;SDS011;4438;50.890;4.726;2022-07-30T00:19:56;7.47;;;5.00;;
8803;SDS011;4438;50.890;4.726;2022-07-30T00:22:23;6.13;;;4.67;;
8803;SDS011;4438;50.890;4.726;2022-07-30T00:24:49;7.17;;;5.10;;
8803;SDS011;4438;50.890;4.726;2022-07-30T00:27:15;8.27;;;5.83;;
8803;SDS011;4438;50.890;4.726;2022-07-30T00:29:41;7.00;;;5.27;;
8803;SDS011;4438;50.890;4.726;2022-07-30T00:32:07;7.20;;;5.93;;
8803;SDS011;4438;50.890;4.726;2022-07-30T00:34:33;6.73;;;5.80;;
8803;SDS011;4438;50.890;4.726;2022-07-30T00:36:59;5.90;;;5.37;;
8803;SDS011;4438;50.890;4.726;2022-07-30T00:39:25;8.63;;;5.33;;
8803;SDS011;4438;50.890;4.726;2022-07-30T00:41:54;6.20;;;4.97;;
8803;SDS011;4438;50.890;4.726;2022-07-30T00:44:20;6.40;;;5.37;;
8803;SDS011;4438;50.890;4.726;2022-07-30T00:46:47;6.27;;;5.63;;
8803;SDS011;4438;50.890;4.726;2022-07-30T00:49:13;6.73;;;6.03;;
8803;SDS011;4438;50.890;4.726;2022-07-30T00:51:39;6.63;;;5.93;;
8803;SDS011;4438;50.890;4.726;2022-07-30T00:54:05;8.00;;;6.47;;
8803;SDS011;4438;50.890;4.726;2022-07-30T00:56:31;7.07;;;6.30;;
8803;SDS011;4438;50.890;4.726;2022-07-30T00:58:57;7.10;;;6.23;;
8803;SDS011;4438;50.890;4.726;2022-07-30T01:01:23;8.37;;;6.30;;
8803;SDS011;4438;50.890;4.726;2022-07-30T01:03:49;6.87;;;6.20;;
8803;SDS011;4438;50.890;4.726;2022-07-30T01:06:15;7.20;;;6.50;;
8803;SDS011;4438;50.890;4.726;2022-07-30T01:08:41;8.73;;;6.90;;
8803;SDS011;4438;50.890;4.726;2022-07-30T01:11:08;7.50;;;6.80;;
8803;SDS011;4438;50.890;4.726;2022-07-30T01:13:34;10.17;;;7.83;;
8803;SDS011;4438;50.890;4.726;2022-07-30T01:16:01;8.43;;;7.63;;
8803;SDS011;4438;50.890;4.726;2022-07-30T01:18:28;9.83;;;8.40;;
8803;SDS011;4438;50.890;4.726;2022-07-30T01:21:16;8.80;;;7.90;;
8803;SDS011;4438;50.890;4.726;2022-07-30T01:23:44;9.77;;;7.80;;
8803;SDS011;4438;50.890;4.726;2022-07-30T01:26:13;9.20;;;8.10;;
8803;SDS011;4438;50.890;4.726;2022-07-30T01:28:42;9.20;;;8.23;;
8803;SDS011;4438;50.890;4.726;2022-07-30T01:31:09;8.60;;;7.70;;
8803;SDS011;4438;50.890;4.726;2022-07-30T01:33:38;8.20;;;7.40;;
8803;SDS011;4438;50.890;4.726;2022-07-30T01:36:06;8.07;;;7.23;;
8803;SDS011;4438;50.890;4.726;2022-07-30T01:38:32;9.33;;;7.67;;
8803;SDS011;4438;50.890;4.726;2022-07-30T01:40:59;8.83;;;7.97;;
8803;SDS011;4438;50.890;4.726;2022-07-30T01:43:26;8.40;;;7.50;;
8803;SDS011;4438;50.890;4.726;2022-07-30T01:45:53;8.60;;;7.57;;
8803;SDS011;4438;50.890;4.726;2022-07-30T01:48:20;9.10;;;7.63;;
8803;SDS011;4438;50.890;4.726;2022-07-30T01:50:48;9.80;;;8.43;;
8803;SDS011;4438;50.890;4.726;2022-07-30T01:53:20;9.10;;;8.07;;
8803;SDS011;4438;50.890;4.726;2022-07-30T01:55:47;9.47;;;8.07;;
8803;SDS011;4438;50.890;4.726;2022-07-30T01:58:13;8.60;;;7.57;;
8803;SDS011;4438;50.890;4.726;2022-07-30T02:00:42;8.77;;;7.90;;
8803;SDS011;4438;50.890;4.726;2022-07-30T02:03:08;11.10;;;8.10;;
8803;SDS011;4438;50.890;4.726;2022-07-30T02:05:35;9.20;;;8.20;;
8803;SDS011;4438;50.890;4.726;2022-07-30T02:10:44;9.93;;;8.47;;
8803;SDS011;4438;50.890;4.726;2022-07-30T02:13:11;12.83;;;9.20;;
8803;SDS011;4438;50.890;4.726;2022-07-30T02:15:48;10.17;;;9.07;;
8803;SDS011;4438;50.890;4.726;2022-07-30T02:18:16;9.97;;;8.97;;
8803;SDS011;4438;50.890;4.726;2022-07-30T02:20:44;11.10;;;9.47;;
8803;SDS011;4438;50.890;4.726;2022-07-30T02:23:11;10.63;;;9.63;;
8803;SDS011;4438;50.890;4.726;2022-07-30T02:25:41;11.30;;;9.83;;
8803;SDS011;4438;50.890;4.726;2022-07-30T02:28:09;12.20;;;9.30;;
8803;SDS011;4438;50.890;4.726;2022-07-30T02:30:36;9.97;;;8.97;;
8803;SDS011;4438;50.890;4.726;2022-07-30T02:33:06;10.27;;;9.27;;
8803;SDS011;4438;50.890;4.726;2022-07-30T02:35:35;9.90;;;9.00;;
8803;SDS011;4438;50.890;4.726;2022-07-30T02:38:01;10.70;;;9.60;;
8803;SDS011;4438;50.890;4.726;2022-07-30T02:40:29;11.00;;;9.40;;
8803;SDS011;4438;50.890;4.726;2022-07-30T02:42:55;9.90;;;8.90;;
8803;SDS011;4438;50.890;4.726;2022-07-30T02:45:23;9.50;;;8.57;;
8803;SDS011;4438;50.890;4.726;2022-07-30T02:47:51;9.67;;;8.77;;
8803;SDS011;4438;50.890;4.726;2022-07-30T02:50:18;9.47;;;8.57;;
8803;SDS011;4438;50.890;4.726;2022-07-30T02:52:45;9.67;;;8.70;;
8803;SDS011;4438;50.890;4.726;2022-07-30T02:55:12;10.83;;;9.83;;
8803;SDS011;4438;50.890;4.726;2022-07-30T02:57:40;8.90;;;8.00;;
8803;SDS011;4438;50.890;4.726;2022-07-30T03:00:07;11.33;;;9.37;;
8803;SDS011;4438;50.890;4.726;2022-07-30T03:02:34;10.13;;;9.13;;
8803;SDS011;4438;50.890;4.726;2022-07-30T03:05:01;11.03;;;10.03;;
8803;SDS011;4438;50.890;4.726;2022-07-30T03:07:29;10.53;;;9.53;;
8803;SDS011;4438;50.890;4.726;2022-07-30T03:09:55;11.27;;;10.17;;
8803;SDS011;4438;50.890;4.726;2022-07-30T03:12:22;10.80;;;9.67;;
8803;SDS011;4438;50.890;4.726;2022-07-30T03:14:49;10.10;;;9.20;;
8803;SDS011;4438;50.890;4.726;2022-07-30T03:17:16;10.50;;;9.50;;
8803;SDS011;4438;50.890;4.726;2022-07-30T03:19:43;11.90;;;9.73;;
8803;SDS011;4438;50.890;4.726;2022-07-30T03:22:10;11.50;;;9.73;;
8803;SDS011;4438;50.890;4.726;2022-07-30T03:24:37;10.60;;;9.60;;
8803;SDS011;4438;50.890;4.726;2022-07-30T03:27:04;12.73;;;10.63;;
8803;SDS011;4438;50.890;4.726;2022-07-30T03:29:31;10.67;;;9.53;;
8803;SDS011;4438;50.890;4.726;2022-07-30T03:31:58;11.37;;;10.10;;
8803;SDS011;4438;50.890;4.726;2022-07-30T03:34:24;11.33;;;10.23;;
8803;SDS011;4438;50.890;4.726;2022-07-30T03:36:50;11.00;;;10.00;;
8803;SDS011;4438;50.890;4.726;2022-07-30T03:39:17;11.10;;;10.03;;
8803;SDS011;4438;50.890;4.726;2022-07-30T03:41:44;11.37;;;10.13;;
8803;SDS011;4438;50.890;4.726;2022-07-30T03:44:11;11.83;;;10.63;;
8803;SDS011;4438;50.890;4.726;2022-07-30T03:46:37;11.10;;;9.87;;
8803;SDS011;4438;50.890;4.726;2022-07-30T03:49:03;11.47;;;9.50;;
8803;SDS011;4438;50.890;4.726;2022-07-30T03:51:30;10.37;;;9.37;;
8803;SDS011;4438;50.890;4.726;2022-07-30T03:53:57;11.17;;;10.07;;
8803;SDS011;4438;50.890;4.726;2022-07-30T03:56:23;10.87;;;9.87;;
8803;SDS011;4438;50.890;4.726;2022-07-30T03:58:50;11.47;;;10.37;;
8803;SDS011;4438;50.890;4.726;2022-07-30T04:01:16;10.90;;;10.00;;
8803;SDS011;4438;50.890;4.726;2022-07-30T04:03:42;11.90;;;10.73;;
8803;SDS011;4438;50.890;4.726;2022-07-30T04:06:08;11.27;;;10.27;;
8803;SDS011;4438;50.890;4.726;2022-07-30T04:08:34;13.20;;;10.67;;
8803;SDS011;4438;50.890;4.726;2022-07-30T04:11:00;13.20;;;10.40;;
8803;SDS011;4438;50.890;4.726;2022-07-30T04:13:26;11.37;;;10.27;;
8803;SDS011;4438;50.890;4.726;2022-07-30T04:18:39;11.93;;;10.40;;
8803;SDS011;4438;50.890;4.726;2022-07-30T04:21:07;11.00;;;9.90;;
8803;SDS011;4438;50.890;4.726;2022-07-30T04:23:34;10.97;;;9.87;;
8803;SDS011;4438;50.890;4.726;2022-07-30T04:26:00;11.30;;;10.33;;
8803;SDS011;4438;50.890;4.726;2022-07-30T04:28:27;10.67;;;9.57;;
8803;SDS011;4438;50.890;4.726;2022-07-30T04:30:54;11.33;;;10.13;;
8803;SDS011;4438;50.890;4.726;2022-07-30T04:33:20;10.70;;;9.70;;
8803;SDS011;4438;50.890;4.726;2022-07-30T04:35:46;11.33;;;10.23;;
8803;SDS011;4438;50.890;4.726;2022-07-30T04:38:12;11.47;;;10.27;;
8803;SDS011;4438;50.890;4.726;2022-07-30T04:40:39;11.53;;;9.73;;
8803;SDS011;4438;50.890;4.726;2022-07-30T04:43:05;11.80;;;10.13;;
8803;SDS011;4438;50.890;4.726;2022-07-30T04:45:31;11.73;;;10.53;;
8803;SDS011;4438;50.890;4.726;2022-07-30T04:47:59;11.87;;;10.67;;
8803;SDS011;4438;50.890;4.726;2022-07-30T04:50:25;12.13;;;10.43;;
8803;SDS011;4438;50.890;4.726;2022-07-30T04:52:52;12.47;;;11.17;;
8803;SDS011;4438;50.890;4.726;2022-07-30T04:55:19;12.00;;;10.87;;
8803;SDS011;4438;50.890;4.726;2022-07-30T04:57:48;11.87;;;10.83;;
8803;SDS011;4438;50.890;4.726;2022-07-30T05:00:15;12.60;;;10.77;;
8803;SDS011;4438;50.890;4.726;2022-07-30T05:02:41;12.73;;;11.10;;
8803;SDS011;4438;50.890;4.726;2022-07-30T05:05:08;12.80;;;11.27;;
8803;SDS011;4438;50.890;4.726;2022-07-30T05:07:35;17.03;;;14.30;;
8803;SDS011;4438;50.890;4.726;2022-07-30T05:10:02;12.90;;;11.33;;
8803;SDS011;4438;50.890;4.726;2022-07-30T05:12:35;12.40;;;11.10;;
8803;SDS011;4438;50.890;4.726;2022-07-30T05:15:02;13.00;;;11.67;;
8803;SDS011;4438;50.890;4.726;2022-07-30T05:17:28;12.63;;;11.30;;
8803;SDS011;4438;50.890;4.726;2022-07-30T05:19:54;13.83;;;12.53;;
8803;SDS011;4438;50.890;4.726;2022-07-30T05:22:21;13.90;;;12.17;;
8803;SDS011;4438;50.890;4.726;2022-07-30T05:24:49;13.17;;;11.17;;
8803;SDS011;4438;50.890;4.726;2022-07-30T05:27:15;13.00;;;11.70;;
8803;SDS011;4438;50.890;4.726;2022-07-30T05:29:41;11.23;;;10.20;;
8803;SDS011;4438;50.890;4.726;2022-07-30T05:32:07;13.37;;;12.07;;
8803;SDS011;4438;50.890;4.726;2022-07-30T05:34:33;14.20;;;12.90;;
8803;SDS011;4438;50.890;4.726;2022-07-30T05:36:59;14.27;;;12.80;;
8803;SDS011;4438;50.890;4.726;2022-07-30T05:39:25;12.33;;;10.90;;
8803;SDS011;4438;50.890;4.726;2022-07-30T05:41:52;13.27;;;11.97;;
8803;SDS011;4438;50.890;4.726;2022-07-30T05:44:19;11.77;;;10.57;;
8803;SDS011;4438;50.890;4.726;2022-07-30T05:46:45;15.30;;;12.50;;
8803;SDS011;4438;50.890;4.726;2022-07-30T05:49:11;14.00;;;12.70;;
8803;SDS011;4438;50.890;4.726;2022-07-30T05:51:37;12.27;;;10.97;;
8803;SDS011;4438;50.890;4.726;2022-07-30T05:54:03;13.20;;;11.83;;
8803;SDS011;4438;50.890;4.726;2022-07-30T05:56:30;13.17;;;11.83;;
8803;SDS011;4438;50.890;4.726;2022-07-30T05:58:56;13.53;;;12.13;;
8803;SDS011;4438;50.890;4.726;2022-07-30T06:01:22;12.70;;;11.40;;
8803;SDS011;4438;50.890;4.726;2022-07-30T06:03:48;12.90;;;11.70;;
8803;SDS011;4438;50.890;4.726;2022-07-30T06:06:14;11.67;;;10.37;;
8803;SDS011;4438;50.890;4.726;2022-07-30T06:08:40;12.60;;;11.30;;
8803;SDS011;4438;50.890;4.726;2022-07-30T06:11:08;12.27;;;11.07;;
8803;SDS011;4438;50.890;4.726;2022-07-30T06:13:34;13.23;;;11.90;;
8803;SDS011;4438;50.890;4.726;2022-07-30T06:16:01;14.37;;;12.90;;
8803;SDS011;4438;50.890;4.726;2022-07-30T06:18:27;16.20;;;14.63;;
8803;SDS011;4438;50.890;4.726;2022-07-30T06:20:53;15.13;;;13.53;;
8803;SDS011;4438;50.890;4.726;2022-07-30T06:23:20;16.27;;;14.57;;
8803;SDS011;4438;50.890;4.726;2022-07-30T06:25:46;13.30;;;12.10;;
8803;SDS011;4438;50.890;4.726;2022-07-30T06:28:13;14.10;;;12.80;;
8803;SDS011;4438;50.890;4.726;2022-07-30T06:30:39;15.10;;;13.70;;
8803;SDS011;4438;50.890;4.726;2022-07-30T06:33:05;14.13;;;12.63;;
8803;SDS011;4438;50.890;4.726;2022-07-30T06:35:32;16.00;;;14.40;;
8803;SDS011;4438;50.890;4.726;2022-07-30T06:37:59;15.57;;;14.00;;
8803;SDS011;4438;50.890;4.726;2022-07-30T06:40:25;16.97;;;15.30;;
8803;SDS011;4438;50.890;4.726;2022-07-30T06:42:51;15.83;;;14.23;;
8803;SDS011;4438;50.890;4.726;2022-07-30T06:45:17;16.00;;;14.23;;
8803;SDS011;4438;50.890;4.726;2022-07-30T06:47:43;15.30;;;13.80;;
8803;SDS011;4438;50.890;4.726;2022-07-30T06:50:10;16.87;;;15.03;;
8803;SDS011;4438;50.890;4.726;2022-07-30T06:52:36;14.60;;;13.10;;
8803;SDS011;4438;50.890;4.726;2022-07-30T06:55:02;16.93;;;14.33;;
8803;SDS011;4438;50.890;4.726;2022-07-30T06:57:28;17.47;;;15.70;;
8803;SDS011;4438;50.890;4.726;2022-07-30T06:59:54;17.07;;;15.33;;
8803;SDS011;4438;50.890;4.726;2022-07-30T07:02:20;17.50;;;15.70;;
8803;SDS011;4438;50.890;4.726;2022-07-30T07:04:46;17.07;;;15.33;;
8803;SDS011;4438;50.890;4.726;2022-07-30T07:07:12;15.83;;;13.97;;
8803;SDS011;4438;50.890;4.726;2022-07-30T07:09:38;13.23;;;11.83;;
8803;SDS011;4438;50.890;4.726;2022-07-30T07:12:05;15.73;;;11.83;;
8803;SDS011;4438;50.890;4.726;2022-07-30T07:14:31;12.73;;;11.47;;
8803;SDS011;4438;50.890;4.726;2022-07-30T07:16:57;12.70;;;10.57;;
8803;SDS011;4438;50.890;4.726;2022-07-30T07:19:23;13.80;;;12.50;;
8803;SDS011;4438;50.890;4.726;2022-07-30T07:21:49;13.20;;;11.90;;
8803;SDS011;4438;50.890;4.726;2022-07-30T07:24:15;16.47;;;14.80;;
8803;SDS011;4438;50.890;4.726;2022-07-30T07:26:42;13.70;;;12.40;;
8803;SDS011;4438;50.890;4.726;2022-07-30T07:29:08;12.17;;;10.87;;
8803;SDS011;4438;50.890;4.726;2022-07-30T07:31:34;12.23;;;10.43;;
8803;SDS011;4438;50.890;4.726;2022-07-30T07:34:00;12.70;;;11.23;;
8803;SDS011;4438;50.890;4.726;2022-07-30T07:36:26;11.27;;;9.90;;
8803;SDS011;4438;50.890;4.726;2022-07-30T07:38:52;11.07;;;9.97;;
8803;SDS011;4438;50.890;4.726;2022-07-30T07:41:18;10.17;;;8.60;;
8803;SDS011;4438;50.890;4.726;2022-07-30T07:43:44;10.57;;;8.23;;
8803;SDS011;4438;50.890;4.726;2022-07-30T07:46:10;12.47;;;9.10;;
8803;SDS011;4438;50.890;4.726;2022-07-30T07:48:40;11.47;;;10.30;;
8803;SDS011;4438;50.890;4.726;2022-07-30T07:51:06;12.03;;;9.07;;
8803;SDS011;4438;50.890;4.726;2022-07-30T07:53:32;14.03;;;11.90;;
8803;SDS011;4438;50.890;4.726;2022-07-30T07:55:58;11.57;;;10.37;;
8803;SDS011;4438;50.890;4.726;2022-07-30T07:58:25;9.50;;;8.50;;
8803;SDS011;4438;50.890;4.726;2022-07-30T08:00:51;10.90;;;9.80;;
8803;SDS011;4438;50.890;4.726;2022-07-30T08:03:17;9.80;;;8.30;;
8803;SDS011;4438;50.890;4.726;2022-07-30T08:05:43;9.13;;;8.23;;
8803;SDS011;4438;50.890;4.726;2022-07-30T08:08:10;8.23;;;7.47;;
8803;SDS011;4438;50.890;4.726;2022-07-30T08:10:36;6.83;;;6.10;;
8803;SDS011;4438;50.890;4.726;2022-07-30T08:13:03;8.50;;;7.60;;
8803;SDS011;4438;50.890;4.726;2022-07-30T08:15:29;7.33;;;6.10;;
8803;SDS011;4438;50.890;4.726;2022-07-30T08:17:55;7.47;;;6.77;;
8803;SDS011;4438;50.890;4.726;2022-07-30T08:20:21;5.93;;;5.30;;
8803;SDS011;4438;50.890;4.726;2022-07-30T08:22:49;8.57;;;6.00;;
8803;SDS011;4438;50.890;4.726;2022-07-30T08:25:15;6.90;;;5.00;;
8803;SDS011;4438;50.890;4.726;2022-07-30T08:27:44;5.67;;;4.50;;
8803;SDS011;4438;50.890;4.726;2022-07-30T08:30:10;4.40;;;3.70;;
8803;SDS011;4438;50.890;4.726;2022-07-30T08:32:37;3.80;;;3.50;;
8803;SDS011;4438;50.890;4.726;2022-07-30T08:35:03;4.30;;;3.50;;
8803;SDS011;4438;50.890;4.726;2022-07-30T08:37:29;4.03;;;3.73;;
8803;SDS011;4438;50.890;4.726;2022-07-30T08:39:55;5.00;;;3.90;;
8803;SDS011;4438;50.890;4.726;2022-07-30T08:42:21;5.60;;;3.63;;
8803;SDS011;4438;50.890;4.726;2022-07-30T08:44:48;4.23;;;3.70;;
8803;SDS011;4438;50.890;4.726;2022-07-30T08:47:15;4.50;;;4.10;;
8803;SDS011;4438;50.890;4.726;2022-07-30T08:49:43;4.47;;;3.80;;
8803;SDS011;4438;50.890;4.726;2022-07-30T08:52:09;5.10;;;4.60;;
8803;SDS011;4438;50.890;4.726;2022-07-30T08:54:35;5.00;;;4.53;;
8803;SDS011;4438;50.890;4.726;2022-07-30T08:57:02;6.20;;;4.70;;
8803;SDS011;4438;50.890;4.726;2022-07-30T08:59:28;5.30;;;4.30;;
8803;SDS011;4438;50.890;4.726;2022-07-30T09:01:54;5.93;;;4.53;;
8803;SDS011;4438;50.890;4.726;2022-07-30T09:04:21;4.67;;;4.27;;
8803;SDS011;4438;50.890;4.726;2022-07-30T09:06:47;3.97;;;3.63;;
8803;SDS011;4438;50.890;4.726;2022-07-30T09:09:14;8.30;;;4.83;;
8803;SDS011;4438;50.890;4.726;2022-07-30T09:11:40;4.30;;;3.50;;
8803;SDS011;4438;50.890;4.726;2022-07-30T09:14:07;5.37;;;4.27;;
8803;SDS011;4438;50.890;4.726;2022-07-30T09:16:33;4.30;;;3.87;;
8803;SDS011;4438;50.890;4.726;2022-07-30T09:19:00;7.53;;;4.20;;
8803;SDS011;4438;50.890;4.726;2022-07-30T09:21:35;4.10;;;3.57;;
8803;SDS011;4438;50.890;4.726;2022-07-30T09:24:02;4.83;;;3.50;;
8803;SDS011;4438;50.890;4.726;2022-07-30T09:26:30;3.97;;;3.30;;
8803;SDS011;4438;50.890;4.726;2022-07-30T09:29:18;4.60;;;3.30;;
8803;SDS011;4438;50.890;4.726;2022-07-30T09:34:26;3.73;;;3.30;;
8803;SDS011;4438;50.890;4.726;2022-07-30T09:36:52;5.30;;;3.63;;
8803;SDS011;4438;50.890;4.726;2022-07-30T09:39:32;4.73;;;3.83;;
8803;SDS011;4438;50.890;4.726;2022-07-30T09:41:59;3.50;;;3.20;;
8803;SDS011;4438;50.890;4.726;2022-07-30T09:44:26;3.77;;;3.33;;
8803;SDS011;4438;50.890;4.726;2022-07-30T09:46:52;4.20;;;3.33;;
8803;SDS011;4438;50.890;4.726;2022-07-30T09:49:19;3.50;;;2.97;;
8803;SDS011;4438;50.890;4.726;2022-07-30T09:51:46;4.67;;;3.20;;
8803;SDS011;4438;50.890;4.726;2022-07-30T09:54:12;5.23;;;3.03;;
8803;SDS011;4438;50.890;4.726;2022-07-30T09:56:39;3.70;;;3.30;;
8803;SDS011;4438;50.890;4.726;2022-07-30T10:01:50;3.90;;;3.40;;
8803;SDS011;4438;50.890;4.726;2022-07-30T10:04:24;3.90;;;2.93;;
8803;SDS011;4438;50.890;4.726;2022-07-30T10:06:51;3.83;;;2.80;;
8803;SDS011;4438;50.890;4.726;2022-07-30T10:09:24;3.20;;;2.90;;
8803;SDS011;4438;50.890;4.726;2022-07-30T10:11:51;3.30;;;3.03;;
8803;SDS011;4438;50.890;4.726;2022-07-30T10:14:17;4.03;;;2.97;;
8803;SDS011;4438;50.890;4.726;2022-07-30T10:16:43;3.60;;;2.40;;
8803;SDS011;4438;50.890;4.726;2022-07-30T10:19:11;3.13;;;2.70;;
8803;SDS011;4438;50.890;4.726;2022-07-30T10:21:37;3.57;;;2.93;;
8803;SDS011;4438;50.890;4.726;2022-07-30T10:24:03;5.30;;;2.80;;
8803;SDS011;4438;50.890;4.726;2022-07-30T10:26:32;3.27;;;2.77;;
8803;SDS011;4438;50.890;4.726;2022-07-30T10:28:59;3.90;;;2.70;;
8803;SDS011;4438;50.890;4.726;2022-07-30T10:31:26;2.83;;;2.47;;
8803;SDS011;4438;50.890;4.726;2022-07-30T10:33:52;3.33;;;2.50;;
8803;SDS011;4438;50.890;4.726;2022-07-30T10:36:18;5.73;;;2.43;;
8803;SDS011;4438;50.890;4.726;2022-07-30T10:38:45;3.13;;;2.50;;
8803;SDS011;4438;50.890;4.726;2022-07-30T10:46:35;2.77;;;2.17;;
8803;SDS011;4438;50.890;4.726;2022-07-30T10:49:08;3.00;;;2.40;;
8803;SDS011;4438;50.890;4.726;2022-07-30T11:00:03;2.60;;;2.30;;
8803;SDS011;4438;50.890;4.726;2022-07-30T11:02:16;3.10;;;2.10;;
8803;SDS011;4438;50.890;4.726;2022-07-30T11:04:42;2.70;;;2.50;;
8803;SDS011;4438;50.890;4.726;2022-07-30T11:07:27;2.87;;;2.10;;
8803;SDS011;4438;50.890;4.726;2022-07-30T11:09:55;3.93;;;2.43;;
8803;SDS011;4438;50.890;4.726;2022-07-30T11:15:06;3.47;;;2.30;;
8803;SDS011;4438;50.890;4.726;2022-07-30T11:18:15;3.27;;;2.40;;
8803;SDS011;4438;50.890;4.726;2022-07-30T11:20:22;3.57;;;2.30;;
8803;SDS011;4438;50.890;4.726;2022-07-30T11:22:48;2.67;;;2.47;;
8803;SDS011;4438;50.890;4.726;2022-07-30T11:27:47;2.77;;;2.30;;
8803;SDS011;4438;50.890;4.726;2022-07-30T11:32:43;3.17;;;2.20;;
8803;SDS011;4438;50.890;4.726;2022-07-30T11:35:20;2.57;;;2.27;;
8803;SDS011;4438;50.890;4.726;2022-07-30T11:37:54;3.45;;;2.38;;
8803;SDS011;4438;50.890;4.726;2022-07-30T11:40:20;3.35;;;2.17;;
8803;SDS011;4438;50.890;4.726;2022-07-30T11:42:47;2.40;;;2.10;;
8803;SDS011;4438;50.890;4.726;2022-07-30T11:48:01;2.45;;;2.10;;
8803;SDS011;4438;50.890;4.726;2022-07-30T11:50:27;2.42;;;2.20;;
8803;SDS011;4438;50.890;4.726;2022-07-30T11:52:54;2.55;;;2.03;;
8803;SDS011;4438;50.890;4.726;2022-07-30T11:55:24;2.67;;;2.05;;
8803;SDS011;4438;50.890;4.726;2022-07-30T11:57:51;4.57;;;2.40;;
8803;SDS011;4438;50.890;4.726;2022-07-30T12:00:17;2.40;;;2.05;;
8803;SDS011;4438;50.890;4.726;2022-07-30T12:02:43;3.90;;;2.10;;
8803;SDS011;4438;50.890;4.726;2022-07-30T12:05:10;2.45;;;2.10;;
8803;SDS011;4438;50.890;4.726;2022-07-30T12:07:36;3.20;;;2.20;;
8803;SDS011;4438;50.890;4.726;2022-07-30T12:10:12;3.97;;;2.50;;
8803;SDS011;4438;50.890;4.726;2022-07-30T12:12:38;2.73;;;2.20;;
8803;SDS011;4438;50.890;4.726;2022-07-30T12:15:04;3.77;;;2.27;;
8803;SDS011;4438;50.890;4.726;2022-07-30T12:17:43;2.50;;;2.30;;
8803;SDS011;4438;50.890;4.726;2022-07-30T12:20:16;2.40;;;2.20;;
8803;SDS011;4438;50.890;4.726;2022-07-30T12:22:43;3.13;;;2.10;;
8803;SDS011;4438;50.890;4.726;2022-07-30T12:25:09;3.27;;;2.40;;
8803;SDS011;4438;50.890;4.726;2022-07-30T12:27:36;4.15;;;2.40;;
8803;SDS011;4438;50.890;4.726;2022-07-30T12:30:06;2.60;;;2.00;;
8803;SDS011;4438;50.890;4.726;2022-07-30T12:32:35;2.63;;;2.10;;
8803;SDS011;4438;50.890;4.726;2022-07-30T12:35:02;2.67;;;2.40;;
8803;SDS011;4438;50.890;4.726;2022-07-30T12:37:28;4.27;;;2.40;;
8803;SDS011;4438;50.890;4.726;2022-07-30T12:40:07;2.60;;;2.40;;
8803;SDS011;4438;50.890;4.726;2022-07-30T12:42:34;3.23;;;2.00;;
8803;SDS011;4438;50.890;4.726;2022-07-30T12:45:00;2.60;;;2.40;;
8803;SDS011;4438;50.890;4.726;2022-07-30T12:47:27;3.97;;;2.50;;
8803;SDS011;4438;50.890;4.726;2022-07-30T12:49:58;3.97;;;2.30;;
8803;SDS011;4438;50.890;4.726;2022-07-30T13:00:13;4.40;;;2.30;;
8803;SDS011;4438;50.890;4.726;2022-07-30T13:02:40;3.38;;;2.17;;
8803;SDS011;4438;50.890;4.726;2022-07-30T13:05:06;2.78;;;2.15;;
8803;SDS011;4438;50.890;4.726;2022-07-30T13:07:32;2.15;;;1.98;;
8803;SDS011;4438;50.890;4.726;2022-07-30T13:10:10;3.25;;;2.45;;
8803;SDS011;4438;50.890;4.726;2022-07-30T13:12:36;2.55;;;2.15;;
8803;SDS011;4438;50.890;4.726;2022-07-30T13:15:03;3.10;;;2.15;;
8803;SDS011;4438;50.890;4.726;2022-07-30T13:17:29;3.03;;;2.55;;
8803;SDS011;4438;50.890;4.726;2022-07-30T13:19:55;2.70;;;2.25;;
8803;SDS011;4438;50.890;4.726;2022-07-30T13:22:22;3.75;;;2.40;;
8803;SDS011;4438;50.890;4.726;2022-07-30T13:24:48;3.38;;;2.50;;
8803;SDS011;4438;50.890;4.726;2022-07-30T13:27:14;2.67;;;2.40;;
8803;SDS011;4438;50.890;4.726;2022-07-30T13:29:41;2.75;;;2.55;;
8803;SDS011;4438;50.890;4.726;2022-07-30T13:32:07;2.30;;;2.10;;
8803;SDS011;4438;50.890;4.726;2022-07-30T13:34:33;2.63;;;2.20;;
8803;SDS011;4438;50.890;4.726;2022-07-30T13:36:59;3.30;;;2.15;;
8803;SDS011;4438;50.890;4.726;2022-07-30T13:39:25;2.42;;;2.20;;
8803;SDS011;4438;50.890;4.726;2022-07-30T13:41:52;3.47;;;2.20;;
8803;SDS011;4438;50.890;4.726;2022-07-30T13:44:18;3.67;;;2.40;;
8803;SDS011;4438;50.890;4.726;2022-07-30T13:46:44;2.13;;;1.95;;
8803;SDS011;4438;50.890;4.726;2022-07-30T13:49:10;2.40;;;2.20;;
8803;SDS011;4438;50.890;4.726;2022-07-30T13:51:37;4.32;;;2.47;;
8803;SDS011;4438;50.890;4.726;2022-07-30T13:54:03;3.03;;;2.38;;
8803;SDS011;4438;50.890;4.726;2022-07-30T13:56:29;2.60;;;2.40;;
8803;SDS011;4438;50.890;4.726;2022-07-30T13:58:55;2.53;;;2.28;;
8803;SDS011;4438;50.890;4.726;2022-07-30T14:01:21;2.83;;;2.40;;
8803;SDS011;4438;50.890;4.726;2022-07-30T14:03:47;3.60;;;2.70;;
8803;SDS011;4438;50.890;4.726;2022-07-30T14:06:13;4.53;;;2.90;;
8803;SDS011;4438;50.890;4.726;2022-07-30T14:08:39;5.07;;;3.05;;
8803;SDS011;4438;50.890;4.726;2022-07-30T14:11:06;4.03;;;3.17;;
8803;SDS011;4438;50.890;4.726;2022-07-30T14:13:32;4.15;;;3.15;;
8803;SDS011;4438;50.890;4.726;2022-07-30T14:15:58;4.82;;;2.78;;
8803;SDS011;4438;50.890;4.726;2022-07-30T14:18:24;3.67;;;2.40;;
8803;SDS011;4438;50.890;4.726;2022-07-30T14:20:51;2.90;;;2.65;;
8803;SDS011;4438;50.890;4.726;2022-07-30T14:23:18;2.90;;;2.58;;
8803;SDS011;4438;50.890;4.726;2022-07-30T14:25:44;5.63;;;2.85;;
8803;SDS011;4438;50.890;4.726;2022-07-30T14:28:10;3.10;;;2.78;;
8803;SDS011;4438;50.890;4.726;2022-07-30T14:30:37;3.55;;;2.90;;
8803;SDS011;4438;50.890;4.726;2022-07-30T14:33:03;3.13;;;2.60;;
8803;SDS011;4438;50.890;4.726;2022-07-30T14:35:29;3.58;;;2.80;;
8803;SDS011;4438;50.890;4.726;2022-07-30T14:37:55;2.70;;;2.50;;
8803;SDS011;4438;50.890;4.726;2022-07-30T14:40:21;3.22;;;2.53;;
8803;SDS011;4438;50.890;4.726;2022-07-30T14:42:47;4.22;;;2.70;;
8803;SDS011;4438;50.890;4.726;2022-07-30T14:45:13;2.80;;;2.60;;
8803;SDS011;4438;50.890;4.726;2022-07-30T14:47:39;3.20;;;2.90;;
8803;SDS011;4438;50.890;4.726;2022-07-30T14:50:06;3.63;;;2.63;;
8803;SDS011;4438;50.890;4.726;2022-07-30T14:52:34;5.60;;;2.97;;
8803;SDS011;4438;50.890;4.726;2022-07-30T14:55:03;4.22;;;2.80;;
8803;SDS011;4438;50.890;4.726;2022-07-30T14:57:29;2.78;;;2.53;;
8803;SDS011;4438;50.890;4.726;2022-07-30T14:59:55;3.03;;;2.70;;
8803;SDS011;4438;50.890;4.726;2022-07-30T15:02:22;2.90;;;2.58;;
8803;SDS011;4438;50.890;4.726;2022-07-30T15:04:48;3.40;;;2.58;;
8803;SDS011;4438;50.890;4.726;2022-07-30T15:07:14;3.63;;;2.78;;
8803;SDS011;4438;50.890;4.726;2022-07-30T15:09:40;3.13;;;2.60;;
8803;SDS011;4438;50.890;4.726;2022-07-30T15:12:06;4.18;;;2.53;;
8803;SDS011;4438;50.890;4.726;2022-07-30T15:14:37;4.03;;;2.70;;
8803;SDS011;4438;50.890;4.726;2022-07-30T15:17:03;4.43;;;2.60;;
8803;SDS011;4438;50.890;4.726;2022-07-30T15:19:30;2.90;;;2.60;;
8803;SDS011;4438;50.890;4.726;2022-07-30T15:21:57;2.90;;;2.65;;
8803;SDS011;4438;50.890;4.726;2022-07-30T15:24:25;2.97;;;2.72;;
8803;SDS011;4438;50.890;4.726;2022-07-30T15:26:51;3.65;;;2.85;;
8803;SDS011;4438;50.890;4.726;2022-07-30T15:29:18;3.25;;;2.65;;
8803;SDS011;4438;50.890;4.726;2022-07-30T15:31:45;2.90;;;2.63;;
8803;SDS011;4438;50.890;4.726;2022-07-30T15:34:11;3.00;;;2.60;;
8803;SDS011;4438;50.890;4.726;2022-07-30T15:36:37;3.20;;;2.78;;
8803;SDS011;4438;50.890;4.726;2022-07-30T15:39:03;4.05;;;2.50;;
8803;SDS011;4438;50.890;4.726;2022-07-30T15:41:30;2.88;;;2.60;;
8803;SDS011;4438;50.890;4.726;2022-07-30T15:43:56;4.07;;;2.75;;
8803;SDS011;4438;50.890;4.726;2022-07-30T15:46:22;2.90;;;2.60;;
8803;SDS011;4438;50.890;4.726;2022-07-30T15:48:48;2.97;;;2.45;;